sensor_id;sensor_type;location;lat;lon;timestamp;P1;durP1;ratioP1;P2;durP2;ratioP2
71973;SDS011;59840;52.122;5.404;2023-12-07T00:01:59;5.00;;;3.55;;
71973;SDS011;59840;52.122;5.404;2023-12-07T00:04:25;7.28;;;3.78;;
71973;SDS011;59840;52.122;5.404;2023-12-07T00:06:52;6.93;;;3.33;;
71973;SDS011;59840;52.122;5.404;2023-12-07T00:09:18;6.95;;;3.40;;
71973;SDS011;59840;52.122;5.404;2023-12-07T00:11:45;6.85;;;4.18;;
71973;SDS011;59840;52.122;5.404;2023-12-07T00:14:11;5.82;;;3.00;;
71973;SDS011;59840;52.122;5.404;2023-12-07T00:16:38;7.95;;;3.20;;
71973;SDS011;59840;52.122;5.404;2023-12-07T00:19:04;7.97;;;3.13;;
71973;SDS011;59840;52.122;5.404;2023-12-07T00:21:31;8.02;;;3.20;;
71973;SDS011;59840;52.122;5.404;2023-12-07T00:23:58;6.10;;;3.55;;
71973;SDS011;59840;52.122;5.404;2023-12-07T00:26:24;12.57;;;3.78;;
71973;SDS011;59840;52.122;5.404;2023-12-07T00:28:51;6.15;;;2.92;;
71973;SDS011;59840;52.122;5.404;2023-12-07T00:31:17;8.93;;;4.80;;
71973;SDS011;59840;52.122;5.404;2023-12-07T00:33:44;14.40;;;5.70;;
71973;SDS011;59840;52.122;5.404;2023-12-07T00:36:12;10.63;;;5.22;;
71973;SDS011;59840;52.122;5.404;2023-12-07T00:38:38;10.80;;;6.13;;
71973;SDS011;59840;52.122;5.404;2023-12-07T00:41:05;6.80;;;4.18;;
71973;SDS011;59840;52.122;5.404;2023-12-07T00:43:32;13.10;;;4.00;;
71973;SDS011;59840;52.122;5.404;2023-12-07T00:45:59;13.77;;;4.40;;
71973;SDS011;59840;52.122;5.404;2023-12-07T00:48:26;15.23;;;4.75;;
71973;SDS011;59840;52.122;5.404;2023-12-07T00:50:52;7.75;;;4.38;;
71973;SDS011;59840;52.122;5.404;2023-12-07T00:53:19;6.55;;;4.10;;
71973;SDS011;59840;52.122;5.404;2023-12-07T00:55:46;6.87;;;3.97;;
71973;SDS011;59840;52.122;5.404;2023-12-07T00:58:12;9.25;;;4.65;;
71973;SDS011;59840;52.122;5.404;2023-12-07T01:00:40;9.98;;;4.88;;
71973;SDS011;59840;52.122;5.404;2023-12-07T01:03:06;6.95;;;4.25;;
71973;SDS011;59840;52.122;5.404;2023-12-07T01:05:33;12.80;;;4.78;;
71973;SDS011;59840;52.122;5.404;2023-12-07T01:08:00;7.77;;;3.97;;
71973;SDS011;59840;52.122;5.404;2023-12-07T01:10:26;9.50;;;4.07;;
71973;SDS011;59840;52.122;5.404;2023-12-07T01:12:53;6.72;;;3.75;;
71973;SDS011;59840;52.122;5.404;2023-12-07T01:15:20;8.75;;;4.40;;
71973;SDS011;59840;52.122;5.404;2023-12-07T01:17:46;7.65;;;4.20;;
71973;SDS011;59840;52.122;5.404;2023-12-07T01:20:13;6.93;;;3.37;;
71973;SDS011;59840;52.122;5.404;2023-12-07T01:22:40;6.55;;;3.85;;
71973;SDS011;59840;52.122;5.404;2023-12-07T01:25:12;7.53;;;4.78;;
71973;SDS011;59840;52.122;5.404;2023-12-07T01:27:43;11.70;;;5.10;;
71973;SDS011;59840;52.122;5.404;2023-12-07T01:30:10;7.57;;;4.75;;
71973;SDS011;59840;52.122;5.404;2023-12-07T01:32:37;5.57;;;3.83;;
71973;SDS011;59840;52.122;5.404;2023-12-07T01:35:04;10.82;;;5.20;;
71973;SDS011;59840;52.122;5.404;2023-12-07T01:37:31;8.85;;;4.05;;
71973;SDS011;59840;52.122;5.404;2023-12-07T01:39:57;9.23;;;4.30;;
71973;SDS011;59840;52.122;5.404;2023-12-07T01:42:24;10.68;;;4.00;;
71973;SDS011;59840;52.122;5.404;2023-12-07T01:44:51;6.77;;;3.47;;
71973;SDS011;59840;52.122;5.404;2023-12-07T01:47:17;6.90;;;3.72;;
71973;SDS011;59840;52.122;5.404;2023-12-07T01:49:44;6.43;;;3.35;;
71973;SDS011;59840;52.122;5.404;2023-12-07T01:52:11;7.80;;;4.13;;
71973;SDS011;59840;52.122;5.404;2023-12-07T01:54:39;7.00;;;3.70;;
71973;SDS011;59840;52.122;5.404;2023-12-07T01:57:06;5.30;;;3.40;;
71973;SDS011;59840;52.122;5.404;2023-12-07T01:59:33;5.30;;;3.65;;
71973;SDS011;59840;52.122;5.404;2023-12-07T02:01:59;7.22;;;3.38;;
71973;SDS011;59840;52.122;5.404;2023-12-07T02:04:26;4.75;;;3.15;;
71973;SDS011;59840;52.122;5.404;2023-12-07T02:06:54;6.68;;;3.95;;
71973;SDS011;59840;52.122;5.404;2023-12-07T02:09:23;7.77;;;3.97;;
71973;SDS011;59840;52.122;5.404;2023-12-07T02:11:50;8.13;;;3.78;;
71973;SDS011;59840;52.122;5.404;2023-12-07T02:14:17;6.40;;;3.78;;
71973;SDS011;59840;52.122;5.404;2023-12-07T02:17:28;14.73;;;4.20;;
71973;SDS011;59840;52.122;5.404;2023-12-07T02:22:21;9.23;;;4.17;;
71973;SDS011;59840;52.122;5.404;2023-12-07T02:25:11;6.95;;;3.80;;
71973;SDS011;59840;52.122;5.404;2023-12-07T02:27:41;6.55;;;3.53;;
71973;SDS011;59840;52.122;5.404;2023-12-07T02:30:09;6.75;;;4.07;;
71973;SDS011;59840;52.122;5.404;2023-12-07T02:32:38;6.47;;;3.53;;
71973;SDS011;59840;52.122;5.404;2023-12-07T02:35:06;9.60;;;3.80;;
71973;SDS011;59840;52.122;5.404;2023-12-07T02:37:40;7.00;;;4.25;;
71973;SDS011;59840;52.122;5.404;2023-12-07T02:40:10;6.75;;;3.60;;
71973;SDS011;59840;52.122;5.404;2023-12-07T02:42:38;6.15;;;3.25;;
71973;SDS011;59840;52.122;5.404;2023-12-07T02:45:07;9.90;;;3.58;;
71973;SDS011;59840;52.122;5.404;2023-12-07T02:47:35;5.83;;;3.63;;
71973;SDS011;59840;52.122;5.404;2023-12-07T02:50:03;6.55;;;4.10;;
71973;SDS011;59840;52.122;5.404;2023-12-07T02:52:32;7.68;;;3.95;;
71973;SDS011;59840;52.122;5.404;2023-12-07T02:54:58;6.82;;;4.45;;
71973;SDS011;59840;52.122;5.404;2023-12-07T02:57:25;11.10;;;4.32;;
71973;SDS011;59840;52.122;5.404;2023-12-07T02:59:52;5.13;;;3.47;;
71973;SDS011;59840;52.122;5.404;2023-12-07T03:02:18;11.68;;;3.75;;
71973;SDS011;59840;52.122;5.404;2023-12-07T03:04:45;4.88;;;3.00;;
71973;SDS011;59840;52.122;5.404;2023-12-07T03:07:12;6.22;;;3.38;;
71973;SDS011;59840;52.122;5.404;2023-12-07T03:09:38;7.53;;;3.30;;
71973;SDS011;59840;52.122;5.404;2023-12-07T03:12:06;7.53;;;3.97;;
71973;SDS011;59840;52.122;5.404;2023-12-07T03:14:33;5.35;;;3.58;;
71973;SDS011;59840;52.122;5.404;2023-12-07T03:16:59;5.20;;;3.30;;
71973;SDS011;59840;52.122;5.404;2023-12-07T03:19:26;4.43;;;2.65;;
71973;SDS011;59840;52.122;5.404;2023-12-07T03:21:52;9.70;;;3.78;;
71973;SDS011;59840;52.122;5.404;2023-12-07T03:24:19;6.33;;;3.60;;
71973;SDS011;59840;52.122;5.404;2023-12-07T03:26:46;6.70;;;3.63;;
71973;SDS011;59840;52.122;5.404;2023-12-07T03:29:12;9.52;;;3.80;;
71973;SDS011;59840;52.122;5.404;2023-12-07T03:31:39;6.45;;;3.30;;
71973;SDS011;59840;52.122;5.404;2023-12-07T03:34:05;7.05;;;3.42;;
71973;SDS011;59840;52.122;5.404;2023-12-07T03:36:32;8.83;;;3.87;;
71973;SDS011;59840;52.122;5.404;2023-12-07T03:39:00;11.55;;;3.70;;
71973;SDS011;59840;52.122;5.404;2023-12-07T03:41:27;9.77;;;3.58;;
71973;SDS011;59840;52.122;5.404;2023-12-07T03:43:53;7.05;;;3.40;;
71973;SDS011;59840;52.122;5.404;2023-12-07T03:46:20;7.57;;;3.95;;
71973;SDS011;59840;52.122;5.404;2023-12-07T03:48:47;7.03;;;3.77;;
71973;SDS011;59840;52.122;5.404;2023-12-07T03:51:13;9.80;;;3.40;;
71973;SDS011;59840;52.122;5.404;2023-12-07T03:53:43;4.47;;;3.17;;
71973;SDS011;59840;52.122;5.404;2023-12-07T03:56:09;7.28;;;3.67;;
71973;SDS011;59840;52.122;5.404;2023-12-07T03:58:36;7.28;;;3.33;;
71973;SDS011;59840;52.122;5.404;2023-12-07T04:01:03;5.20;;;3.10;;
71973;SDS011;59840;52.122;5.404;2023-12-07T04:03:30;6.40;;;3.10;;
71973;SDS011;59840;52.122;5.404;2023-12-07T04:05:57;9.25;;;3.90;;
71973;SDS011;59840;52.122;5.404;2023-12-07T04:08:23;5.07;;;3.42;;
71973;SDS011;59840;52.122;5.404;2023-12-07T04:10:50;10.07;;;3.72;;
71973;SDS011;59840;52.122;5.404;2023-12-07T04:13:17;5.97;;;3.20;;
71973;SDS011;59840;52.122;5.404;2023-12-07T04:15:45;6.20;;;3.13;;
71973;SDS011;59840;52.122;5.404;2023-12-07T04:18:11;5.93;;;3.72;;
71973;SDS011;59840;52.122;5.404;2023-12-07T04:20:38;9.20;;;3.67;;
71973;SDS011;59840;52.122;5.404;2023-12-07T04:23:04;4.10;;;2.92;;
71973;SDS011;59840;52.122;5.404;2023-12-07T04:25:31;6.00;;;3.67;;
71973;SDS011;59840;52.122;5.404;2023-12-07T04:27:58;4.78;;;3.17;;
71973;SDS011;59840;52.122;5.404;2023-12-07T04:30:25;6.88;;;3.22;;
71973;SDS011;59840;52.122;5.404;2023-12-07T04:32:52;7.88;;;3.13;;
71973;SDS011;59840;52.122;5.404;2023-12-07T04:35:19;4.45;;;2.90;;
71973;SDS011;59840;52.122;5.404;2023-12-07T04:37:45;7.20;;;3.60;;
71973;SDS011;59840;52.122;5.404;2023-12-07T04:40:12;5.63;;;3.60;;
71973;SDS011;59840;52.122;5.404;2023-12-07T04:42:39;3.65;;;3.10;;
71973;SDS011;59840;52.122;5.404;2023-12-07T04:45:05;6.45;;;3.70;;
71973;SDS011;59840;52.122;5.404;2023-12-07T04:47:33;4.78;;;3.72;;
71973;SDS011;59840;52.122;5.404;2023-12-07T04:50:00;7.00;;;3.03;;
71973;SDS011;59840;52.122;5.404;2023-12-07T04:52:26;7.47;;;3.97;;
71973;SDS011;59840;52.122;5.404;2023-12-07T04:54:54;7.22;;;3.30;;
71973;SDS011;59840;52.122;5.404;2023-12-07T04:57:20;4.95;;;3.45;;
71973;SDS011;59840;52.122;5.404;2023-12-07T04:59:47;7.45;;;3.47;;
71973;SDS011;59840;52.122;5.404;2023-12-07T05:02:14;7.03;;;3.77;;
71973;SDS011;59840;52.122;5.404;2023-12-07T05:04:44;6.22;;;3.38;;
71973;SDS011;59840;52.122;5.404;2023-12-07T05:07:11;7.93;;;3.97;;
71973;SDS011;59840;52.122;5.404;2023-12-07T05:09:39;11.30;;;4.15;;
71973;SDS011;59840;52.122;5.404;2023-12-07T05:12:06;5.90;;;3.80;;
71973;SDS011;59840;52.122;5.404;2023-12-07T05:14:33;6.80;;;3.63;;
71973;SDS011;59840;52.122;5.404;2023-12-07T05:17:01;5.55;;;3.47;;
71973;SDS011;59840;52.122;5.404;2023-12-07T05:19:27;5.38;;;3.30;;
71973;SDS011;59840;52.122;5.404;2023-12-07T05:21:54;7.75;;;4.00;;
71973;SDS011;59840;52.122;5.404;2023-12-07T05:24:21;8.20;;;3.50;;
71973;SDS011;59840;52.122;5.404;2023-12-07T05:26:47;6.07;;;3.70;;
71973;SDS011;59840;52.122;5.404;2023-12-07T05:29:15;8.77;;;4.28;;
71973;SDS011;59840;52.122;5.404;2023-12-07T05:31:41;11.60;;;4.93;;
71973;SDS011;59840;52.122;5.404;2023-12-07T05:34:08;10.45;;;5.30;;
71973;SDS011;59840;52.122;5.404;2023-12-07T05:36:35;12.30;;;4.65;;
71973;SDS011;59840;52.122;5.404;2023-12-07T05:39:01;10.90;;;4.53;;
71973;SDS011;59840;52.122;5.404;2023-12-07T05:41:28;11.27;;;4.28;;
71973;SDS011;59840;52.122;5.404;2023-12-07T05:43:55;11.77;;;4.95;;
71973;SDS011;59840;52.122;5.404;2023-12-07T05:46:21;19.25;;;4.80;;
71973;SDS011;59840;52.122;5.404;2023-12-07T05:48:48;8.20;;;4.97;;
71973;SDS011;59840;52.122;5.404;2023-12-07T05:51:16;14.63;;;5.47;;
71973;SDS011;59840;52.122;5.404;2023-12-07T05:53:44;8.00;;;4.55;;
71973;SDS011;59840;52.122;5.404;2023-12-07T05:56:10;7.88;;;4.70;;
71973;SDS011;59840;52.122;5.404;2023-12-07T05:58:38;12.00;;;5.07;;
71973;SDS011;59840;52.122;5.404;2023-12-07T06:01:05;12.15;;;4.90;;
71973;SDS011;59840;52.122;5.404;2023-12-07T06:03:32;8.40;;;4.47;;
71973;SDS011;59840;52.122;5.404;2023-12-07T06:05:58;10.73;;;4.53;;
71973;SDS011;59840;52.122;5.404;2023-12-07T06:08:26;18.27;;;5.72;;
71973;SDS011;59840;52.122;5.404;2023-12-07T06:10:52;7.95;;;4.97;;
71973;SDS011;59840;52.122;5.404;2023-12-07T06:13:19;12.10;;;4.72;;
71973;SDS011;59840;52.122;5.404;2023-12-07T06:15:45;17.13;;;5.37;;
71973;SDS011;59840;52.122;5.404;2023-12-07T06:18:12;10.00;;;5.18;;
71973;SDS011;59840;52.122;5.404;2023-12-07T06:20:39;11.35;;;5.47;;
71973;SDS011;59840;52.122;5.404;2023-12-07T06:23:07;10.65;;;5.72;;
71973;SDS011;59840;52.122;5.404;2023-12-07T06:25:39;12.95;;;5.78;;
71973;SDS011;59840;52.122;5.404;2023-12-07T06:28:06;13.23;;;5.63;;
71973;SDS011;59840;52.122;5.404;2023-12-07T06:30:33;12.25;;;5.68;;
71973;SDS011;59840;52.122;5.404;2023-12-07T06:32:59;18.00;;;6.20;;
71973;SDS011;59840;52.122;5.404;2023-12-07T06:35:26;16.30;;;5.82;;
71973;SDS011;59840;52.122;5.404;2023-12-07T06:37:53;12.07;;;5.38;;
71973;SDS011;59840;52.122;5.404;2023-12-07T06:40:20;9.50;;;6.03;;
71973;SDS011;59840;52.122;5.404;2023-12-07T06:42:49;10.18;;;5.90;;
71973;SDS011;59840;52.122;5.404;2023-12-07T06:45:16;11.30;;;5.93;;
71973;SDS011;59840;52.122;5.404;2023-12-07T06:47:42;16.25;;;5.85;;
71973;SDS011;59840;52.122;5.404;2023-12-07T06:50:09;12.43;;;6.47;;
71973;SDS011;59840;52.122;5.404;2023-12-07T06:52:37;12.47;;;5.80;;
71973;SDS011;59840;52.122;5.404;2023-12-07T06:55:04;14.02;;;6.35;;
71973;SDS011;59840;52.122;5.404;2023-12-07T06:57:31;11.65;;;5.38;;
71973;SDS011;59840;52.122;5.404;2023-12-07T06:59:59;9.43;;;5.72;;
71973;SDS011;59840;52.122;5.404;2023-12-07T07:02:27;21.33;;;6.38;;
71973;SDS011;59840;52.122;5.404;2023-12-07T07:04:54;16.67;;;6.87;;
71973;SDS011;59840;52.122;5.404;2023-12-07T07:07:21;22.08;;;6.07;;
71973;SDS011;59840;52.122;5.404;2023-12-07T07:09:48;17.25;;;6.30;;
71973;SDS011;59840;52.122;5.404;2023-12-07T07:12:14;37.72;;;6.38;;
71973;SDS011;59840;52.122;5.404;2023-12-07T07:14:41;15.85;;;6.68;;
71973;SDS011;59840;52.122;5.404;2023-12-07T07:17:08;10.07;;;5.80;;
71973;SDS011;59840;52.122;5.404;2023-12-07T07:19:35;11.38;;;6.38;;
71973;SDS011;59840;52.122;5.404;2023-12-07T07:22:01;21.95;;;6.07;;
71973;SDS011;59840;52.122;5.404;2023-12-07T07:24:29;13.45;;;5.97;;
71973;SDS011;59840;52.122;5.404;2023-12-07T07:26:55;19.58;;;5.97;;
71973;SDS011;59840;52.122;5.404;2023-12-07T07:29:22;16.17;;;6.10;;
71973;SDS011;59840;52.122;5.404;2023-12-07T07:31:49;16.90;;;5.88;;
71973;SDS011;59840;52.122;5.404;2023-12-07T07:34:17;16.02;;;6.70;;
71973;SDS011;59840;52.122;5.404;2023-12-07T07:36:43;16.33;;;6.57;;
71973;SDS011;59840;52.122;5.404;2023-12-07T07:39:10;17.20;;;6.45;;
71973;SDS011;59840;52.122;5.404;2023-12-07T07:41:40;11.47;;;5.73;;
71973;SDS011;59840;52.122;5.404;2023-12-07T07:44:07;11.18;;;6.00;;
71973;SDS011;59840;52.122;5.404;2023-12-07T07:46:34;34.00;;;7.05;;
71973;SDS011;59840;52.122;5.404;2023-12-07T07:49:01;23.02;;;6.85;;
71973;SDS011;59840;52.122;5.404;2023-12-07T07:51:30;24.75;;;6.82;;
71973;SDS011;59840;52.122;5.404;2023-12-07T07:54:01;16.10;;;6.17;;
71973;SDS011;59840;52.122;5.404;2023-12-07T07:56:27;52.55;;;7.13;;
71973;SDS011;59840;52.122;5.404;2023-12-07T07:58:54;16.42;;;6.03;;
71973;SDS011;59840;52.122;5.404;2023-12-07T08:01:21;13.52;;;5.57;;
71973;SDS011;59840;52.122;5.404;2023-12-07T08:03:47;33.95;;;6.30;;
71973;SDS011;59840;52.122;5.404;2023-12-07T08:06:14;24.77;;;5.97;;
71973;SDS011;59840;52.122;5.404;2023-12-07T08:08:41;24.23;;;6.25;;
71973;SDS011;59840;52.122;5.404;2023-12-07T08:11:07;16.42;;;5.70;;
71973;SDS011;59840;52.122;5.404;2023-12-07T08:13:34;10.50;;;6.03;;
71973;SDS011;59840;52.122;5.404;2023-12-07T08:16:00;17.65;;;5.80;;
71973;SDS011;59840;52.122;5.404;2023-12-07T08:18:27;29.67;;;6.60;;
71973;SDS011;59840;52.122;5.404;2023-12-07T08:20:54;17.85;;;5.95;;
71973;SDS011;59840;52.122;5.404;2023-12-07T08:23:21;19.00;;;6.07;;
71973;SDS011;59840;52.122;5.404;2023-12-07T08:25:47;12.30;;;5.88;;
71973;SDS011;59840;52.122;5.404;2023-12-07T08:28:15;12.07;;;6.03;;
71973;SDS011;59840;52.122;5.404;2023-12-07T08:30:41;13.17;;;6.13;;
71973;SDS011;59840;52.122;5.404;2023-12-07T08:33:08;11.30;;;6.25;;
71973;SDS011;59840;52.122;5.404;2023-12-07T08:35:35;16.67;;;6.43;;
71973;SDS011;59840;52.122;5.404;2023-12-07T08:38:01;25.55;;;6.80;;
71973;SDS011;59840;52.122;5.404;2023-12-07T08:40:29;13.70;;;6.90;;
71973;SDS011;59840;52.122;5.404;2023-12-07T08:42:55;12.97;;;7.00;;
71973;SDS011;59840;52.122;5.404;2023-12-07T08:45:22;15.38;;;7.38;;
71973;SDS011;59840;52.122;5.404;2023-12-07T08:47:50;17.40;;;6.53;;
71973;SDS011;59840;52.122;5.404;2023-12-07T08:50:17;21.98;;;6.43;;
71973;SDS011;59840;52.122;5.404;2023-12-07T08:52:43;28.17;;;6.30;;
71973;SDS011;59840;52.122;5.404;2023-12-07T08:55:18;21.20;;;6.13;;
71973;SDS011;59840;52.122;5.404;2023-12-07T08:57:45;14.10;;;6.43;;
71973;SDS011;59840;52.122;5.404;2023-12-07T09:00:12;17.33;;;6.20;;
71973;SDS011;59840;52.122;5.404;2023-12-07T09:02:40;14.65;;;6.32;;
71973;SDS011;59840;52.122;5.404;2023-12-07T09:05:13;32.47;;;7.35;;
71973;SDS011;59840;52.122;5.404;2023-12-07T09:07:40;14.50;;;5.63;;
71973;SDS011;59840;52.122;5.404;2023-12-07T09:10:07;14.52;;;6.07;;
71973;SDS011;59840;52.122;5.404;2023-12-07T09:12:35;19.23;;;6.28;;
71973;SDS011;59840;52.122;5.404;2023-12-07T09:15:05;18.35;;;6.65;;
71973;SDS011;59840;52.122;5.404;2023-12-07T09:17:34;16.30;;;6.75;;
71973;SDS011;59840;52.122;5.404;2023-12-07T09:20:01;17.27;;;6.20;;
71973;SDS011;59840;52.122;5.404;2023-12-07T09:22:28;19.45;;;6.25;;
71973;SDS011;59840;52.122;5.404;2023-12-07T09:25:03;33.17;;;6.63;;
71973;SDS011;59840;52.122;5.404;2023-12-07T09:27:30;17.83;;;7.13;;
71973;SDS011;59840;52.122;5.404;2023-12-07T09:29:59;10.73;;;5.68;;
71973;SDS011;59840;52.122;5.404;2023-12-07T09:32:26;17.30;;;6.60;;
71973;SDS011;59840;52.122;5.404;2023-12-07T09:35:02;12.07;;;6.05;;
71973;SDS011;59840;52.122;5.404;2023-12-07T09:37:30;13.45;;;5.70;;
71973;SDS011;59840;52.122;5.404;2023-12-07T09:39:56;12.18;;;5.45;;
71973;SDS011;59840;52.122;5.404;2023-12-07T09:42:23;15.18;;;6.07;;
71973;SDS011;59840;52.122;5.404;2023-12-07T09:44:57;9.90;;;5.17;;
71973;SDS011;59840;52.122;5.404;2023-12-07T09:47:25;12.73;;;5.65;;
71973;SDS011;59840;52.122;5.404;2023-12-07T09:50:03;8.88;;;4.78;;
71973;SDS011;59840;52.122;5.404;2023-12-07T09:52:35;14.20;;;5.00;;
71973;SDS011;59840;52.122;5.404;2023-12-07T09:55:02;6.72;;;4.50;;
71973;SDS011;59840;52.122;5.404;2023-12-07T09:57:30;10.13;;;4.90;;
71973;SDS011;59840;52.122;5.404;2023-12-07T09:59:58;10.80;;;4.88;;
71973;SDS011;59840;52.122;5.404;2023-12-07T10:02:25;13.00;;;4.13;;
71973;SDS011;59840;52.122;5.404;2023-12-07T10:05:07;8.63;;;4.00;;
71973;SDS011;59840;52.122;5.404;2023-12-07T10:07:48;6.90;;;3.92;;
71973;SDS011;59840;52.122;5.404;2023-12-07T10:10:16;9.33;;;4.00;;
71973;SDS011;59840;52.122;5.404;2023-12-07T10:12:48;7.60;;;3.97;;
71973;SDS011;59840;52.122;5.404;2023-12-07T10:15:18;11.68;;;3.83;;
71973;SDS011;59840;52.122;5.404;2023-12-07T10:17:47;10.32;;;3.90;;
71973;SDS011;59840;52.122;5.404;2023-12-07T10:20:15;7.47;;;3.58;;
71973;SDS011;59840;52.122;5.404;2023-12-07T10:22:42;5.67;;;2.93;;
71973;SDS011;59840;52.122;5.404;2023-12-07T10:25:11;15.27;;;3.45;;
71973;SDS011;59840;52.122;5.404;2023-12-07T10:27:39;6.53;;;3.45;;
71973;SDS011;59840;52.122;5.404;2023-12-07T10:30:09;8.70;;;3.53;;
71973;SDS011;59840;52.122;5.404;2023-12-07T10:32:40;7.72;;;3.25;;
71973;SDS011;59840;52.122;5.404;2023-12-07T10:35:07;8.83;;;2.80;;
71973;SDS011;59840;52.122;5.404;2023-12-07T10:37:34;8.43;;;3.28;;
71973;SDS011;59840;52.122;5.404;2023-12-07T10:40:02;6.80;;;3.60;;
71973;SDS011;59840;52.122;5.404;2023-12-07T10:42:30;7.03;;;3.15;;
71973;SDS011;59840;52.122;5.404;2023-12-07T10:45:00;7.55;;;3.10;;
71973;SDS011;59840;52.122;5.404;2023-12-07T10:47:31;6.47;;;2.90;;
71973;SDS011;59840;52.122;5.404;2023-12-07T10:50:10;9.05;;;3.35;;
71973;SDS011;59840;52.122;5.404;2023-12-07T10:52:44;9.10;;;3.83;;
71973;SDS011;59840;52.122;5.404;2023-12-07T10:55:16;10.80;;;3.53;;
71973;SDS011;59840;52.122;5.404;2023-12-07T10:57:46;11.73;;;3.40;;
71973;SDS011;59840;52.122;5.404;2023-12-07T11:00:14;6.60;;;3.80;;
71973;SDS011;59840;52.122;5.404;2023-12-07T11:02:41;8.15;;;3.88;;
71973;SDS011;59840;52.122;5.404;2023-12-07T11:05:10;9.40;;;3.65;;
71973;SDS011;59840;52.122;5.404;2023-12-07T11:08:24;8.55;;;3.33;;
71973;SDS011;59840;52.122;5.404;2023-12-07T11:10:42;7.68;;;3.63;;
71973;SDS011;59840;52.122;5.404;2023-12-07T11:13:17;7.13;;;3.30;;
71973;SDS011;59840;52.122;5.404;2023-12-07T11:15:49;6.30;;;3.20;;
71973;SDS011;59840;52.122;5.404;2023-12-07T11:18:16;8.90;;;3.35;;
71973;SDS011;59840;52.122;5.404;2023-12-07T11:20:44;7.65;;;3.47;;
71973;SDS011;59840;52.122;5.404;2023-12-07T11:23:16;6.75;;;3.70;;
71973;SDS011;59840;52.122;5.404;2023-12-07T11:25:45;6.43;;;3.47;;
71973;SDS011;59840;52.122;5.404;2023-12-07T11:28:12;5.50;;;2.97;;
71973;SDS011;59840;52.122;5.404;2023-12-07T11:30:46;7.95;;;4.00;;
71973;SDS011;59840;52.122;5.404;2023-12-07T11:33:14;7.28;;;3.47;;
71973;SDS011;59840;52.122;5.404;2023-12-07T11:38:38;8.17;;;3.90;;
71973;SDS011;59840;52.122;5.404;2023-12-07T11:41:28;6.32;;;3.33;;
71973;SDS011;59840;52.122;5.404;2023-12-07T11:43:58;7.65;;;3.28;;
71973;SDS011;59840;52.122;5.404;2023-12-07T11:46:25;6.65;;;3.85;;
71973;SDS011;59840;52.122;5.404;2023-12-07T11:48:51;8.35;;;3.85;;
71973;SDS011;59840;52.122;5.404;2023-12-07T11:51:19;9.07;;;4.23;;
71973;SDS011;59840;52.122;5.404;2023-12-07T11:53:46;10.15;;;4.57;;
71973;SDS011;59840;52.122;5.404;2023-12-07T11:56:15;12.40;;;4.63;;
71973;SDS011;59840;52.122;5.404;2023-12-07T11:58:46;7.18;;;3.63;;
71973;SDS011;59840;52.122;5.404;2023-12-07T12:01:13;10.00;;;3.70;;
71973;SDS011;59840;52.122;5.404;2023-12-07T12:03:40;9.47;;;4.10;;
71973;SDS011;59840;52.122;5.404;2023-12-07T12:06:06;11.35;;;4.85;;
71973;SDS011;59840;52.122;5.404;2023-12-07T12:08:36;12.15;;;4.47;;
71973;SDS011;59840;52.122;5.404;2023-12-07T12:11:03;10.57;;;5.05;;
71973;SDS011;59840;52.122;5.404;2023-12-07T12:13:33;10.48;;;4.18;;
71973;SDS011;59840;52.122;5.404;2023-12-07T12:16:01;12.47;;;5.00;;
71973;SDS011;59840;52.122;5.404;2023-12-07T12:18:32;16.23;;;5.95;;
71973;SDS011;59840;52.122;5.404;2023-12-07T12:21:00;15.52;;;6.40;;
71973;SDS011;59840;52.122;5.404;2023-12-07T12:23:27;13.95;;;6.10;;
71973;SDS011;59840;52.122;5.404;2023-12-07T12:25:55;15.00;;;5.50;;
71973;SDS011;59840;52.122;5.404;2023-12-07T12:28:23;10.70;;;5.87;;
71973;SDS011;59840;52.122;5.404;2023-12-07T12:30:51;14.40;;;5.60;;
71973;SDS011;59840;52.122;5.404;2023-12-07T12:33:18;12.95;;;4.88;;
71973;SDS011;59840;52.122;5.404;2023-12-07T12:35:45;12.38;;;5.45;;
71973;SDS011;59840;52.122;5.404;2023-12-07T12:38:12;15.10;;;5.85;;
71973;SDS011;59840;52.122;5.404;2023-12-07T12:40:52;11.43;;;5.27;;
71973;SDS011;59840;52.122;5.404;2023-12-07T12:43:20;15.73;;;6.82;;
71973;SDS011;59840;52.122;5.404;2023-12-07T12:45:48;13.93;;;6.30;;
71973;SDS011;59840;52.122;5.404;2023-12-07T12:48:31;12.93;;;5.70;;
71973;SDS011;59840;52.122;5.404;2023-12-07T12:50:59;14.43;;;6.00;;
71973;SDS011;59840;52.122;5.404;2023-12-07T12:53:34;13.63;;;6.07;;
71973;SDS011;59840;52.122;5.404;2023-12-07T12:56:00;16.02;;;6.38;;
71973;SDS011;59840;52.122;5.404;2023-12-07T12:58:27;13.90;;;6.32;;
71973;SDS011;59840;52.122;5.404;2023-12-07T13:00:54;16.60;;;6.60;;
71973;SDS011;59840;52.122;5.404;2023-12-07T13:03:21;16.77;;;6.18;;
71973;SDS011;59840;52.122;5.404;2023-12-07T13:05:47;15.00;;;5.93;;
71973;SDS011;59840;52.122;5.404;2023-12-07T13:08:15;17.05;;;7.47;;
71973;SDS011;59840;52.122;5.404;2023-12-07T13:10:41;15.25;;;6.80;;
71973;SDS011;59840;52.122;5.404;2023-12-07T13:13:08;14.05;;;6.28;;
71973;SDS011;59840;52.122;5.404;2023-12-07T13:15:35;12.63;;;5.90;;
71973;SDS011;59840;52.122;5.404;2023-12-07T13:18:02;18.60;;;7.00;;
71973;SDS011;59840;52.122;5.404;2023-12-07T13:20:33;16.35;;;6.75;;
71973;SDS011;59840;52.122;5.404;2023-12-07T13:23:05;16.92;;;7.68;;
71973;SDS011;59840;52.122;5.404;2023-12-07T13:25:32;19.75;;;7.93;;
71973;SDS011;59840;52.122;5.404;2023-12-07T13:27:59;16.13;;;8.38;;
71973;SDS011;59840;52.122;5.404;2023-12-07T13:30:25;17.07;;;7.77;;
71973;SDS011;59840;52.122;5.404;2023-12-07T13:32:55;17.85;;;8.20;;
71973;SDS011;59840;52.122;5.404;2023-12-07T13:35:22;19.20;;;8.45;;
71973;SDS011;59840;52.122;5.404;2023-12-07T13:37:49;20.90;;;9.07;;
71973;SDS011;59840;52.122;5.404;2023-12-07T13:40:16;19.83;;;8.80;;
71973;SDS011;59840;52.122;5.404;2023-12-07T13:42:42;22.00;;;9.00;;
71973;SDS011;59840;52.122;5.404;2023-12-07T13:45:09;17.98;;;9.13;;
71973;SDS011;59840;52.122;5.404;2023-12-07T13:47:36;20.58;;;8.43;;
71973;SDS011;59840;52.122;5.404;2023-12-07T13:50:05;18.38;;;8.32;;
71973;SDS011;59840;52.122;5.404;2023-12-07T13:52:33;20.95;;;8.88;;
71973;SDS011;59840;52.122;5.404;2023-12-07T13:55:00;19.40;;;8.87;;
71973;SDS011;59840;52.122;5.404;2023-12-07T13:57:28;21.90;;;8.60;;
71973;SDS011;59840;52.122;5.404;2023-12-07T13:59:55;20.35;;;9.07;;
71973;SDS011;59840;52.122;5.404;2023-12-07T14:02:22;18.92;;;8.27;;
71973;SDS011;59840;52.122;5.404;2023-12-07T14:04:49;18.23;;;7.65;;
71973;SDS011;59840;52.122;5.404;2023-12-07T14:07:18;17.73;;;8.47;;
71973;SDS011;59840;52.122;5.404;2023-12-07T14:09:47;18.55;;;8.20;;
71973;SDS011;59840;52.122;5.404;2023-12-07T14:12:24;20.90;;;8.57;;
71973;SDS011;59840;52.122;5.404;2023-12-07T14:14:51;21.48;;;8.80;;
71973;SDS011;59840;52.122;5.404;2023-12-07T14:17:18;21.65;;;7.68;;
71973;SDS011;59840;52.122;5.404;2023-12-07T14:19:46;19.07;;;7.97;;
71973;SDS011;59840;52.122;5.404;2023-12-07T14:22:15;18.73;;;7.93;;
71973;SDS011;59840;52.122;5.404;2023-12-07T14:24:42;18.50;;;7.68;;
71973;SDS011;59840;52.122;5.404;2023-12-07T14:27:09;22.73;;;8.52;;
71973;SDS011;59840;52.122;5.404;2023-12-07T14:29:36;19.52;;;8.40;;
71973;SDS011;59840;52.122;5.404;2023-12-07T14:32:02;18.27;;;8.50;;
71973;SDS011;59840;52.122;5.404;2023-12-07T14:34:30;17.00;;;8.05;;
71973;SDS011;59840;52.122;5.404;2023-12-07T14:37:01;20.17;;;8.25;;
71973;SDS011;59840;52.122;5.404;2023-12-07T14:39:31;21.40;;;8.57;;
71973;SDS011;59840;52.122;5.404;2023-12-07T14:41:58;19.00;;;8.70;;
71973;SDS011;59840;52.122;5.404;2023-12-07T14:44:24;20.17;;;8.97;;
71973;SDS011;59840;52.122;5.404;2023-12-07T14:46:55;23.20;;;9.00;;
71973;SDS011;59840;52.122;5.404;2023-12-07T14:49:23;22.95;;;8.82;;
71973;SDS011;59840;52.122;5.404;2023-12-07T14:51:50;19.50;;;7.97;;